Time;durP1;ratioP1;P1;durP2;ratioP2;P2;SDS_P1;SDS_P2;PMS_P1;PMS_P2;Temp;Humidity;BMP_temperature;BMP_pressure;BME280_temperature;BME280_humidity;BME280_pressure;Samples;Min_cycle;Max_cycle;Signal;HPM_P1;HPM_P2
2023/03/11 00:01:25;;;;;;;8.75;1.65;;;-0.20;99.90;;;;;;4973865;28;20050;-82
2023/03/11 00:03:50;;;;;;;9.95;1.40;;;-0.10;99.90;;;;;;4991360;28;20058;-81
2023/03/11 00:06:16;;;;;;;7.05;1.00;;;-0.20;99.90;;;;;;4991240;28;20405;-81
2023/03/11 00:08:42;;;;;;;14.95;1.58;;;-0.20;99.90;;;;;;4974253;28;20050;-80
2023/03/11 00:11:07;;;;;;;9.45;1.27;;;-0.20;99.90;;;;;;4991343;28;20154;-79
2023/03/11 00:13:35;;;;;;;9.82;1.42;;;0.30;99.90;;;;;;4990827;28;20128;-80
2023/03/11 00:16:01;;;;;;;9.40;1.15;;;-0.20;99.90;;;;;;4991076;28;20065;-78
2023/03/11 00:18:30;;;;;;;6.57;1.50;;;-0.10;99.90;;;;;;4969559;28;20430;-80
2023/03/11 00:20:57;;;;;;;9.18;1.00;;;-0.20;99.90;;;;;;4971497;28;20055;-79
2023/03/11 00:23:24;;;;;;;8.27;1.10;;;-0.20;99.90;;;;;;4954892;28;20055;-81
2023/03/11 00:25:50;;;;;;;5.80;1.08;;;-0.20;99.90;;;;;;4990592;28;20050;-81
2023/03/11 00:28:16;;;;;;;4.63;0.90;;;-0.20;99.90;;;;;;4990843;28;20410;-79
2023/03/11 00:30:44;;;;;;;5.80;0.90;;;-0.20;99.90;;;;;;4990807;28;20057;-81
2023/03/11 00:33:12;;;;;;;10.70;1.67;;;-0.20;99.90;;;;;;4991368;28;20390;-80
2023/03/11 00:35:38;;;;;;;5.82;1.00;;;-0.20;99.90;;;;;;4991157;28;20116;-80
2023/03/11 00:38:07;;;;;;;6.78;1.17;;;-0.20;99.90;;;;;;4991296;28;20038;-81
2023/03/11 00:40:35;;;;;;;7.43;1.10;;;-0.20;99.90;;;;;;4991000;28;20115;-82
2023/03/11 00:43:01;;;;;;;8.57;1.00;;;-0.20;99.90;;;;;;4990593;28;20050;-81
2023/03/11 00:45:27;;;;;;;8.63;0.80;;;-0.20;99.90;;;;;;4990336;28;20470;-79
2023/03/11 00:47:53;;;;;;;5.55;0.93;;;-0.10;99.90;;;;;;4990752;28;20054;-80
2023/03/11 00:50:22;;;;;;;10.13;0.80;;;-0.30;99.90;;;;;;4973264;28;20129;-82
2023/03/11 00:52:49;;;;;;;8.38;0.80;;;0.30;99.90;;;;;;4990688;28;20519;-81
2023/03/11 00:55:18;;;;;;;7.40;1.17;;;-0.30;99.90;;;;;;4990428;28;20070;-80
2023/03/11 00:57:44;;;;;;;4.20;0.80;;;-0.30;99.90;;;;;;4954301;28;20398;-81
2023/03/11 01:00:15;;;;;;;7.85;0.63;;;-0.40;99.90;;;;;;4970966;28;20418;-82
2023/03/11 01:02:41;;;;;;;3.08;0.93;;;-0.40;99.90;;;;;;4964858;28;20061;-79
2023/03/11 01:05:08;;;;;;;9.45;0.88;;;-0.40;99.90;;;;;;4990286;28;20422;-80
2023/03/11 01:07:33;;;;;;;10.70;1.10;;;-0.40;99.90;;;;;;4990505;28;20094;-81
2023/03/11 01:09:59;;;;;;;5.15;1.27;;;-0.40;99.90;;;;;;4990553;28;20074;-80
2023/03/11 01:12:25;;;;;;;6.53;0.90;;;-0.40;99.90;;;;;;5005006;28;20057;-79
2023/03/11 01:14:52;;;;;;;10.27;1.13;;;-0.40;99.90;;;;;;4990015;28;20522;-80
2023/03/11 01:17:18;;;;;;;5.97;0.80;;;-0.40;99.90;;;;;;4990228;28;20046;-79
2023/03/11 01:19:44;;;;;;;5.97;0.80;;;-0.40;99.90;;;;;;4972750;28;20045;-80
2023/03/11 01:22:09;;;;;;;5.85;1.10;;;-0.40;99.90;;;;;;4990444;28;20132;-80
2023/03/11 01:24:35;;;;;;;6.05;0.80;;;-0.40;99.90;;;;;;4989288;28;20137;-81
2023/03/11 01:27:01;;;;;;;8.02;1.60;;;-0.40;99.90;;;;;;5004871;28;20112;-80
2023/03/11 01:29:26;;;;;;;2.25;0.80;;;-0.40;99.90;;;;;;4972590;28;20057;-81
2023/03/11 01:31:52;;;;;;;12.18;1.00;;;-0.40;99.90;;;;;;4988483;28;20046;-82
2023/03/11 01:34:18;;;;;;;5.28;0.88;;;-0.40;99.90;;;;;;5004921;28;20406;-81
2023/03/11 01:36:43;;;;;;;3.92;0.60;;;-0.40;99.90;;;;;;4990070;28;20058;-81
2023/03/11 01:39:09;;;;;;;5.93;1.30;;;-0.40;99.90;;;;;;4992745;28;20058;-80
2023/03/11 01:41:34;;;;;;;4.60;1.00;;;-0.40;99.90;;;;;;4993684;28;20173;-81
2023/03/11 01:44:00;;;;;;;7.78;0.77;;;-0.40;99.90;;;;;;4994008;28;20065;-80
2023/03/11 01:46:30;;;;;;;7.65;0.73;;;-0.50;99.90;;;;;;4976224;28;20112;-81
2023/03/11 01:48:58;;;;;;;3.38;0.85;;;-0.50;99.90;;;;;;4975827;28;20438;-80
2023/03/11 01:51:45;;;;;;;6.10;0.95;;;-0.50;99.90;;;;;;4993656;28;20042;-81
2023/03/11 01:54:33;;;;;;;5.10;0.90;;;-0.50;99.90;;;;;;4976397;28;20121;-80
2023/03/11 01:57:03;;;;;;;4.65;0.80;;;-0.50;99.90;;;;;;4975965;28;20058;-81
2023/03/11 01:59:34;;;;;;;5.78;0.70;;;-0.50;99.90;;;;;;4993586;28;20089;-79
2023/03/11 02:02:07;;;;;;;12.18;1.95;;;-0.50;99.90;;;;;;4993496;28;20069;-80
2023/03/11 02:04:34;;;;;;;2.17;0.77;;;-0.50;99.90;;;;;;4975909;28;20113;-80
2023/03/11 02:07:00;;;;;;;6.57;0.70;;;-0.60;99.90;;;;;;4976441;28;20050;-80
2023/03/11 02:09:26;;;;;;;6.63;0.50;;;-0.60;99.90;;;;;;4976094;28;20894;-81
2023/03/11 02:11:53;;;;;;;3.38;0.60;;;-0.60;99.90;;;;;;4993196;28;20041;-80
2023/03/11 02:14:19;;;;;;;4.70;1.65;;;-0.70;99.90;;;;;;4993110;28;20050;-82
2023/03/11 02:16:44;;;;;;;6.13;0.80;;;-0.70;99.90;;;;;;4993288;28;20060;-80
2023/03/11 02:19:45;;;;;;;4.93;0.80;;;-0.70;99.90;;;;;;4993450;28;20137;-80
2023/03/11 02:22:12;;;;;;;5.15;0.70;;;-0.70;99.90;;;;;;4990008;28;20152;-81
2023/03/11 02:25:01;;;;;;;6.90;1.02;;;-0.80;99.90;;;;;;4993062;28;20129;-82
2023/03/11 02:27:30;;;;;;;2.30;0.73;;;-0.80;99.90;;;;;;4993212;28;20473;-81
2023/03/11 02:29:57;;;;;;;7.75;0.88;;;-0.80;99.90;;;;;;4990838;28;20051;-81
2023/03/11 02:32:23;;;;;;;2.63;0.70;;;-0.90;99.90;;;;;;4992801;28;20054;-80
2023/03/11 02:34:49;;;;;;;8.10;0.85;;;-0.90;99.90;;;;;;4992931;28;20417;-82
2023/03/11 02:37:16;;;;;;;5.57;0.60;;;-0.90;99.90;;;;;;4992723;28;20185;-81
2023/03/11 02:39:49;;;;;;;6.07;1.13;;;-0.90;99.90;;;;;;4992634;28;20573;-81
2023/03/11 02:42:22;;;;;;;5.22;1.00;;;-1.00;99.90;;;;;;4992783;28;20030;-81
2023/03/11 02:45:08;;;;;;;6.57;0.95;;;-1.00;99.90;;;;;;4993087;28;20046;-81
2023/03/11 02:47:34;;;;;;;;;;;-1.00;99.90;;;;;;4992690;28;20046;-82
2023/03/11 02:50:00;;;;;;;5.93;0.77;;;-1.00;99.90;;;;;;4975028;28;19922;-81
2023/03/11 02:52:27;;;;;;;3.70;1.02;;;-1.00;99.90;;;;;;4974703;28;20709;-81
2023/03/11 02:54:53;;;;;;;2.55;0.60;;;-1.00;99.90;;;;;;4975185;28;20046;-82
2023/03/11 02:57:18;;;;;;;3.90;1.00;;;-1.00;99.90;;;;;;4974957;28;20069;-81
2023/03/11 02:59:44;;;;;;;4.05;0.90;;;-1.10;99.90;;;;;;4992534;28;20073;-81
2023/03/11 03:02:10;;;;;;;5.00;0.90;;;-1.10;99.90;;;;;;4954763;28;20094;-80
2023/03/11 03:04:35;;;;;;;4.47;0.80;;;-1.20;99.90;;;;;;4987782;28;20142;-81
2023/03/11 03:07:01;;;;;;;2.75;0.77;;;-1.20;99.90;;;;;;4984310;28;20148;-81
2023/03/11 03:09:27;;;;;;;2.72;0.50;;;-1.30;99.90;;;;;;4992153;28;20049;-84
2023/03/11 03:11:53;;;;;;;2.92;0.70;;;-1.30;99.90;;;;;;4992203;28;20101;-81
2023/03/11 03:14:18;;;;;;;3.63;0.75;;;-1.40;99.90;;;;;;4991737;28;20042;-82
2023/03/11 03:16:44;;;;;;;4.10;0.75;;;-1.50;99.90;;;;;;4991879;28;20042;-82
2023/03/11 03:19:09;;;;;;;7.28;1.58;;;-1.50;99.90;;;;;;4974159;28;20066;-82
2023/03/11 03:21:35;;;;;;;2.53;0.90;;;-1.60;99.90;;;;;;4991520;28;20100;-82
2023/03/11 03:24:01;;;;;;;4.13;1.20;;;-1.60;99.90;;;;;;4992035;28;20113;-82
2023/03/11 03:26:26;;;;;;;5.57;1.00;;;-1.60;99.90;;;;;;4974359;28;20054;-82
2023/03/11 03:28:52;;;;;;;3.42;0.93;;;-1.60;99.90;;;;;;4991513;28;20105;-82
2023/03/11 03:31:18;;;;;;;5.00;0.98;;;-1.60;99.90;;;;;;4981607;28;20130;-81
2023/03/11 03:33:44;;;;;;;5.53;1.10;;;-1.70;99.90;;;;;;4972323;28;20050;-82
2023/03/11 03:36:12;;;;;;;6.40;0.98;;;-1.70;99.90;;;;;;4972139;28;20057;-82
2023/03/11 03:38:38;;;;;;;6.38;1.23;;;-0.70;99.90;;;;;;4973452;28;20039;-82
2023/03/11 03:41:04;;;;;;;6.53;1.33;;;-1.70;99.90;;;;;;4972416;28;20046;-81
2023/03/11 03:43:30;;;;;;;7.05;2.15;;;-1.80;99.90;;;;;;4976656;28;20038;-82
2023/03/11 03:45:57;;;;;;;3.83;1.08;;;-1.80;99.90;;;;;;4972126;28;20043;-82
2023/03/11 03:48:23;;;;;;;5.78;1.13;;;-1.90;99.90;;;;;;4954335;28;20051;-82
2023/03/11 03:50:49;;;;;;;5.28;1.30;;;-2.00;99.90;;;;;;4972057;28;20046;-82
2023/03/11 03:53:15;;;;;;;5.47;1.02;;;-2.00;99.90;;;;;;4971930;28;20101;-82
2023/03/11 03:55:40;;;;;;;5.28;0.98;;;-2.10;99.90;;;;;;4971827;28;20125;-82
2023/03/11 03:58:06;;;;;;;3.72;0.70;;;-2.10;99.90;;;;;;4972083;28;20105;-82
2023/03/11 04:00:33;;;;;;;1.15;0.60;;;-2.20;99.90;;;;;;4986565;28;20092;-81
2023/03/11 04:02:58;;;;;;;5.13;1.00;;;-2.30;99.90;;;;;;4991232;28;20058;-81
2023/03/11 04:05:25;;;;;;;8.00;1.20;;;-1.20;99.90;;;;;;4957362;28;20038;-82
2023/03/11 04:07:51;;;;;;;4.40;0.80;;;-2.50;99.90;;;;;;4989402;28;20046;-80
2023/03/11 04:10:17;;;;;;;5.75;1.25;;;-2.50;99.90;;;;;;4987219;28;20052;-81
2023/03/11 04:12:43;;;;;;;5.25;0.80;;;-2.50;99.90;;;;;;4991026;28;20077;-81
2023/03/11 04:15:09;;;;;;;7.78;1.23;;;-2.60;99.90;;;;;;4991104;28;20104;-81
2023/03/11 04:17:35;;;;;;;2.55;0.73;;;-2.70;99.90;;;;;;4991084;28;20034;-81
2023/03/11 04:20:00;;;;;;;5.68;1.15;;;-2.70;99.90;;;;;;4986563;28;20109;-81
2023/03/11 04:22:26;;;;;;;3.45;1.05;;;-2.70;99.90;;;;;;4971474;28;20446;-81
2023/03/11 04:24:52;;;;;;;6.18;1.38;;;-2.80;99.90;;;;;;4954176;28;20058;-80
2023/03/11 04:27:17;;;;;;;6.47;1.30;;;-2.80;99.90;;;;;;4971965;28;20043;-81
2023/03/11 04:29:43;;;;;;;8.75;1.75;;;-2.80;99.90;;;;;;4965848;28;20061;-81
2023/03/11 04:32:09;;;;;;;6.53;1.60;;;-2.90;99.90;;;;;;4990949;28;20090;-81
2023/03/11 04:34:34;;;;;;;3.50;1.00;;;-2.80;99.90;;;;;;4990459;28;20109;-80
2023/03/11 04:37:00;;;;;;;4.10;1.08;;;-2.90;99.90;;;;;;4990481;28;20086;-80
2023/03/11 04:39:26;;;;;;;11.68;1.35;;;-2.90;99.90;;;;;;4990447;28;20136;-80
2023/03/11 04:41:51;;;;;;;6.40;1.17;;;-2.80;99.90;;;;;;4990613;28;20042;-80
2023/03/11 04:44:17;;;;;;;5.07;0.80;;;-2.90;99.90;;;;;;4990334;28;20046;-80
2023/03/11 04:46:42;;;;;;;4.60;0.93;;;-3.00;99.90;;;;;;4990242;28;20046;-80
2023/03/11 04:49:09;;;;;;;1.63;0.73;;;-3.00;99.90;;;;;;4990163;28;20129;-80
2023/03/11 04:51:34;;;;;;;5.35;1.05;;;-3.10;99.90;;;;;;4990148;28;20059;-81
2023/03/11 04:54:00;;;;;;;4.40;0.90;;;-3.20;99.90;;;;;;4989831;28;20050;-80
2023/03/11 04:56:26;;;;;;;3.03;0.98;;;-3.20;99.90;;;;;;5023898;28;20046;-80
2023/03/11 04:58:51;;;;;;;5.43;1.13;;;-3.20;99.90;;;;;;5004872;28;20042;-79
2023/03/11 05:01:17;;;;;;;3.72;1.80;;;-3.20;99.90;;;;;;4972915;28;20498;-81
2023/03/11 05:03:43;;;;;;;4.20;1.10;;;-3.30;99.90;;;;;;4990384;28;20406;-80
2023/03/11 05:06:08;;;;;;;3.83;1.00;;;-3.20;99.90;;;;;;4989815;28;20057;-80
2023/03/11 05:08:34;;;;;;;5.53;0.80;;;-3.20;99.90;;;;;;4989805;28;20042;-80
2023/03/11 05:10:59;;;;;;;3.15;0.82;;;-3.30;99.90;;;;;;4991064;28;20043;-81
2023/03/11 05:13:25;;;;;;;4.18;1.10;;;-3.40;99.90;;;;;;4994425;28;20042;-80
2023/03/11 05:15:51;;;;;;;4.63;0.95;;;-3.50;99.90;;;;;;4993878;28;20474;-79
2023/03/11 05:18:16;;;;;;;6.22;1.08;;;-3.50;99.90;;;;;;4973612;28;20050;-80
2023/03/11 05:20:42;;;;;;;3.92;0.80;;;-3.50;99.90;;;;;;4941213;28;20062;-80
2023/03/11 05:23:08;;;;;;;2.17;0.75;;;-3.50;99.90;;;;;;4957180;28;20057;-79
2023/03/11 05:25:34;;;;;;;4.18;0.95;;;-3.50;99.90;;;;;;4956902;28;20046;-79
2023/03/11 05:28:00;;;;;;;6.28;1.10;;;-3.60;99.90;;;;;;4956294;28;20498;-78
2023/03/11 05:30:26;;;;;;;5.93;0.90;;;-3.50;99.90;;;;;;4975178;28;20065;-78
2023/03/11 05:32:51;;;;;;;7.22;0.98;;;-3.60;99.90;;;;;;4994008;28;20046;-79
2023/03/11 05:35:17;;;;;;;7.80;0.90;;;-3.50;99.90;;;;;;5007037;28;20356;-79
2023/03/11 05:37:43;;;;;;;1.83;0.68;;;-3.50;99.90;;;;;;5009163;28;20073;-79
2023/03/11 05:40:11;;;;;;;4.53;0.82;;;-3.50;99.90;;;;;;4993853;28;20038;-79
2023/03/11 05:42:37;;;;;;;2.38;0.98;;;-3.50;99.90;;;;;;4993903;28;20124;-79
2023/03/11 05:45:03;;;;;;;4.90;0.75;;;-3.50;99.90;;;;;;4993850;28;20050;-79
2023/03/11 05:47:28;;;;;;;4.97;1.23;;;-3.50;99.90;;;;;;4994139;28;20046;-79
2023/03/11 05:49:54;;;;;;;4.45;0.90;;;-3.60;99.90;;;;;;4993906;28;20477;-79
2023/03/11 05:52:20;;;;;;;3.25;0.98;;;-3.60;99.90;;;;;;4993502;28;20498;-79
2023/03/11 05:54:50;;;;;;;11.55;3.88;;;-3.60;99.90;;;;;;4993155;28;20074;-80
2023/03/11 05:57:16;;;;;;;10.68;1.85;;;-3.60;99.90;;;;;;4975817;28;20060;-80
2023/03/11 05:59:42;;;;;;;8.52;1.70;;;-3.50;99.90;;;;;;4993538;28;20138;-78
2023/03/11 06:02:07;;;;;;;4.97;1.30;;;-3.50;99.90;;;;;;4975807;28;20468;-78
2023/03/11 06:04:33;;;;;;;2.95;1.02;;;-3.50;99.90;;;;;;4993613;28;20043;-78
2023/03/11 06:06:58;;;;;;;7.35;1.10;;;-3.50;99.90;;;;;;4975873;28;20148;-78
2023/03/11 06:09:24;;;;;;;6.60;1.27;;;-3.50;99.90;;;;;;4992842;28;20043;-78
2023/03/11 06:11:50;;;;;;;4.18;0.98;;;-3.50;99.90;;;;;;4993354;28;20069;-80
2023/03/11 06:14:16;;;;;;;4.30;1.05;;;-3.50;99.90;;;;;;4975799;28;20050;-77
2023/03/11 06:16:42;;;;;;;4.85;1.00;;;-3.50;99.90;;;;;;4975601;28;20112;-78
2023/03/11 06:19:08;;;;;;;3.78;1.50;;;-3.50;99.90;;;;;;4993072;28;20046;-78
2023/03/11 06:21:34;;;;;;;7.50;1.23;;;-3.50;99.90;;;;;;4992912;28;20129;-78
2023/03/11 06:24:00;;;;;;;6.32;1.00;;;-3.50;99.90;;;;;;4991787;28;20125;-78
2023/03/11 06:26:25;;;;;;;6.40;1.17;;;-3.50;99.90;;;;;;4992614;28;20105;-78
2023/03/11 06:28:51;;;;;;;5.38;1.50;;;-3.60;99.90;;;;;;4975319;28;20061;-77
2023/03/11 06:31:21;;;;;;;1.67;0.60;;;-3.50;99.90;;;;;;4992803;28;20113;-78
2023/03/11 06:33:47;;;;;;;1.80;0.80;;;-3.70;99.90;;;;;;4975515;28;20065;-79
2023/03/11 06:36:15;;;;;;;2.47;0.85;;;-3.70;99.90;;;;;;4975158;28;20504;-78
2023/03/11 06:38:42;;;;;;;2.22;0.90;;;-3.60;99.90;;;;;;4996277;28;20090;-78
2023/03/11 06:41:07;;;;;;;4.32;1.17;;;-3.60;99.90;;;;;;4955543;28;20407;-80
2023/03/11 06:43:34;;;;;;;2.53;0.95;;;-3.60;99.90;;;;;;4973779;28;20046;-78
2023/03/11 06:46:01;;;;;;;5.32;1.40;;;-3.50;99.90;;;;;;4982942;28;20046;-78
2023/03/11 06:48:26;;;;;;;5.45;1.50;;;-3.50;99.90;;;;;;4992838;28;20053;-78
2023/03/11 06:50:59;;;;;;;5.28;1.42;;;-3.50;99.90;;;;;;4974964;28;20058;-79
2023/03/11 06:53:26;;;;;;;6.00;1.75;;;-3.50;99.90;;;;;;4974817;28;20699;-79
2023/03/11 06:56:04;;;;;;;7.32;1.77;;;-3.40;99.90;;;;;;4992397;28;20100;-83
2023/03/11 06:58:30;;;;;;;6.00;1.70;;;-3.40;99.90;;;;;;4991857;28;20050;-84
2023/03/11 07:01:09;;;;;;;13.23;1.85;;;-3.30;99.90;;;;;;4989706;28;20081;-81
2023/03/11 07:03:34;;;;;;;7.50;1.63;;;-3.10;99.90;;;;;;5006205;28;20046;-80
2023/03/11 07:06:00;;;;;;;4.10;1.58;;;-3.30;99.90;;;;;;5007430;28;20109;-80
2023/03/11 07:08:27;;;;;;;9.07;1.65;;;-3.20;99.90;;;;;;5005787;28;20046;-79
2023/03/11 07:11:07;;;;;;;7.00;1.52;;;-3.20;99.90;;;;;;5007506;28;20053;-79
2023/03/11 07:13:34;;;;;;;6.88;1.70;;;-3.10;99.90;;;;;;4992418;28;20046;-79
2023/03/11 07:16:05;;;;;;;9.52;1.70;;;-3.10;99.90;;;;;;4974683;28;20498;-79
2023/03/11 07:18:32;;;;;;;6.80;1.75;;;-3.00;99.90;;;;;;4991730;28;20054;-79
2023/03/11 07:20:58;;;;;;;7.22;1.00;;;-3.00;99.90;;;;;;4991947;28;20046;-79
2023/03/11 07:23:23;;;;;;;3.13;1.15;;;-2.90;99.90;;;;;;4991762;28;20053;-79
2023/03/11 07:25:51;;;;;;;5.22;1.20;;;-2.90;99.90;;;;;;4974203;28;20077;-78
2023/03/11 07:28:17;;;;;;;7.93;2.80;;;-2.90;99.90;;;;;;4990375;28;20050;-78
2023/03/11 07:30:45;;;;;;;9.10;1.25;;;-2.90;99.90;;;;;;4992010;28;20712;-78
2023/03/11 07:33:12;;;;;;;7.65;1.70;;;-2.80;99.90;;;;;;4973706;28;20054;-78
2023/03/11 07:35:37;;;;;;;5.07;1.30;;;-2.10;99.90;;;;;;4991629;28;20042;-78
2023/03/11 07:38:03;;;;;;;7.85;1.67;;;-2.70;99.90;;;;;;4991515;28;20516;-79
2023/03/11 07:40:28;;;;;;;5.72;2.13;;;-2.70;99.90;;;;;;4991451;28;20060;-79
2023/03/11 07:42:54;;;;;;;5.93;1.48;;;-2.60;99.90;;;;;;4973820;28;20034;-78
2023/03/11 07:45:20;;;;;;;6.35;1.42;;;-2.60;99.90;;;;;;4991441;28;20101;-79
2023/03/11 07:47:45;;;;;;;7.18;1.30;;;-2.60;99.90;;;;;;4991463;28;20465;-78
2023/03/11 07:50:11;;;;;;;6.60;3.03;;;-2.50;99.90;;;;;;5006495;28;20054;-79
2023/03/11 07:52:40;;;;;;;9.32;2.67;;;-2.40;99.90;;;;;;4973354;28;20053;-79
2023/03/11 07:55:05;;;;;;;10.20;2.38;;;-2.40;99.90;;;;;;4973650;28;20038;-79
2023/03/11 07:57:31;;;;;;;12.90;3.97;;;-2.30;99.90;;;;;;4991510;28;20549;-79
2023/03/11 07:59:57;;;;;;;6.93;2.10;;;-2.20;99.90;;;;;;4991370;28;20046;-79
2023/03/11 08:02:22;;;;;;;4.95;1.80;;;-2.20;99.90;;;;;;4990972;28;20066;-79
2023/03/11 08:04:48;;;;;;;11.23;2.40;;;-2.10;99.90;;;;;;4991350;28;20406;-78
2023/03/11 08:07:13;;;;;;;6.88;2.38;;;-2.00;99.90;;;;;;4991149;28;20045;-77
2023/03/11 08:09:39;;;;;;;6.05;2.17;;;-1.90;99.90;;;;;;4991150;28;20543;-79
2023/03/11 08:12:05;;;;;;;5.50;1.85;;;-1.90;99.90;;;;;;4991271;28;20730;-78
2023/03/11 08:14:30;;;;;;;7.10;1.70;;;-1.70;99.90;;;;;;4991124;28;20139;-77
2023/03/11 08:16:56;;;;;;;6.47;2.03;;;-1.60;99.90;;;;;;4990889;28;20580;-78
2023/03/11 08:19:22;;;;;;;9.43;1.73;;;-1.50;99.90;;;;;;4991526;28;20486;-78
2023/03/11 08:21:47;;;;;;;6.32;1.80;;;-1.50;99.90;;;;;;4991221;28;20120;-78
2023/03/11 08:24:13;;;;;;;8.88;1.48;;;-1.30;99.90;;;;;;4990493;28;20053;-78
2023/03/11 08:26:40;;;;;;;6.65;1.63;;;-1.20;99.90;;;;;;4991173;28;20050;-78
2023/03/11 08:29:06;;;;;;;6.63;2.38;;;-1.10;99.90;;;;;;5005796;28;20395;-78
2023/03/11 08:31:33;;;;;;;4.53;1.65;;;-1.00;99.90;;;;;;5005893;28;20129;-79
2023/03/11 08:34:05;;;;;;;7.40;1.60;;;-0.90;99.90;;;;;;4973631;28;20489;-78
2023/03/11 08:36:32;;;;;;;6.88;1.10;;;-0.70;99.90;;;;;;4990713;28;20054;-78
2023/03/11 08:38:58;;;;;;;7.82;1.70;;;-0.60;99.90;;;;;;4990557;28;20185;-77
2023/03/11 08:41:24;;;;;;;21.98;1.60;;;-0.40;99.90;;;;;;4990779;28;20054;-79
2023/03/11 08:43:51;;;;;;;4.97;1.30;;;-0.30;99.90;;;;;;4990738;28;20046;-77
2023/03/11 08:46:24;;;;;;;4.57;1.30;;;-0.10;99.90;;;;;;4989731;28;20093;-77
2023/03/11 08:48:49;;;;;;;9.88;1.45;;;0.00;99.90;;;;;;4990763;28;20046;-77
2023/03/11 08:51:16;;;;;;;2.83;1.00;;;0.10;99.90;;;;;;4972860;28;20052;-78
2023/03/11 08:53:42;;;;;;;8.98;1.30;;;0.30;99.90;;;;;;4971140;28;20528;-77
2023/03/11 08:56:08;;;;;;;9.73;1.25;;;0.40;99.90;;;;;;4999360;28;20046;-79
2023/03/11 08:58:34;;;;;;;4.30;1.58;;;0.60;99.90;;;;;;4989962;28;20132;-81
2023/03/11 09:01:00;;;;;;;6.10;1.27;;;0.70;99.90;;;;;;5017480;28;20401;-83
2023/03/11 09:03:25;;;;;;;12.65;1.98;;;0.90;99.90;;;;;;4964266;28;20035;-82
2023/03/11 09:06:00;;;;;;;7.47;1.48;;;1.00;99.90;;;;;;4977984;28;20041;-80
2023/03/11 09:08:26;;;;;;;16.10;1.70;;;1.30;99.90;;;;;;5009311;28;20045;-84
2023/03/11 09:10:52;;;;;;;3.72;1.27;;;1.50;99.90;;;;;;4992358;28;20132;-81
2023/03/11 09:13:18;;;;;;;6.97;1.40;;;1.70;99.90;;;;;;4985147;28;20185;-80
2023/03/11 09:15:43;;;;;;;7.35;1.30;;;1.90;99.90;;;;;;5000227;28;20147;-81
2023/03/11 09:18:13;;;;;;;9.45;1.73;;;2.10;99.90;;;;;;5010187;28;20060;-81
2023/03/11 09:20:40;;;;;;;9.10;1.10;;;2.20;99.90;;;;;;4993015;28;20034;-77
2023/03/11 09:23:06;;;;;;;10.93;1.23;;;2.40;99.90;;;;;;4990095;28;20054;-81
2023/03/11 09:25:32;;;;;;;10.15;1.23;;;2.70;99.90;;;;;;4972441;28;20144;-81
2023/03/11 09:27:58;;;;;;;6.55;1.40;;;2.90;99.90;;;;;;4956810;28;20505;-82
2023/03/11 09:30:23;;;;;;;9.35;1.58;;;3.20;99.90;;;;;;4989722;28;20522;-82
2023/03/11 09:32:49;;;;;;;7.57;2.30;;;3.40;99.90;;;;;;4990301;28;20115;-81
2023/03/11 09:35:15;;;;;;;14.15;2.38;;;3.50;99.90;;;;;;4990036;28;20038;-82
2023/03/11 09:37:41;;;;;;;4.25;1.10;;;3.60;99.90;;;;;;4990073;28;20054;-81
2023/03/11 09:40:07;;;;;;;7.10;1.42;;;3.80;99.90;;;;;;4989764;28;20828;-81
2023/03/11 09:43:14;;;;;;;5.68;1.20;;;4.00;99.90;;;;;;4955843;28;20062;-81
2023/03/11 09:45:47;;;;;;;5.60;1.48;;;4.10;99.90;;;;;;4972816;28;20117;-78
2023/03/11 09:48:24;;;;;;;15.32;1.33;;;4.30;99.90;;;;;;4990234;28;20046;-79
2023/03/11 09:50:57;;;;;;;2.42;0.88;;;4.40;99.90;;;;;;4990387;28;20043;-79
2023/03/11 09:53:37;;;;;;;8.45;1.40;;;4.50;99.90;;;;;;4990132;28;20045;-80
2023/03/11 09:56:12;;;;;;;5.07;1.33;;;4.70;99.90;;;;;;4972140;28;20054;-78
2023/03/11 09:59:04;;;;;;;;;;;4.80;99.90;;;;;;4975909;28;20113;-78
2023/03/11 10:01:33;;;;;;;8.60;1.38;;;5.10;99.90;;;;;;4989903;28;19921;-79
2023/03/11 10:04:19;;;;;;;7.82;1.65;;;5.50;99.90;;;;;;4976403;28;20406;-80
2023/03/11 10:06:46;;;;;;;7.80;1.60;;;5.40;99.90;;;;;;4959117;28;20062;-80
2023/03/11 10:09:38;;;;;;;9.63;1.40;;;6.30;99.90;;;;;;4975658;28;20629;-78
2023/03/11 10:12:16;;;;;;;8.75;1.73;;;5.50;99.90;;;;;;4989789;28;20054;-79
2023/03/11 10:14:47;;;;;;;12.65;1.77;;;5.50;99.90;;;;;;4993439;28;20048;-80
2023/03/11 10:17:46;;;;;;;6.35;1.42;;;5.50;99.90;;;;;;4978075;28;20061;-79
2023/03/11 10:20:33;;;;;;;10.73;1.60;;;5.60;99.90;;;;;;4992088;28;20116;-77
2023/03/11 10:23:21;;;;;;;10.50;1.52;;;5.50;99.90;;;;;;5004798;28;20057;-80
2023/03/11 10:25:55;;;;;;;6.25;1.65;;;6.40;99.90;;;;;;5012216;28;20187;-80
2023/03/11 10:28:32;;;;;;;12.45;1.90;;;5.50;99.90;;;;;;4997892;28;20054;-79
2023/03/11 10:31:17;;;;;;;8.55;1.30;;;5.60;99.90;;;;;;4992632;28;20062;-79
2023/03/11 10:33:53;;;;;;;;;;;5.50;99.90;;;;;;4993490;28;20082;-78
2023/03/11 10:36:26;;;;;;;10.57;2.67;;;5.60;99.90;;;;;;4992514;28;20400;-78
2023/03/11 10:38:53;;;;;;;10.57;2.40;;;5.80;99.90;;;;;;4992993;28;20057;-77
2023/03/11 10:41:43;;;;;;;10.32;1.83;;;5.80;99.90;;;;;;4975541;28;20080;-76
2023/03/11 10:44:16;;;;;;;6.90;1.50;;;5.80;99.90;;;;;;4992968;28;20061;-80
2023/03/11 10:46:41;;;;;;;4.72;1.10;;;5.80;99.90;;;;;;4992182;28;20473;-78
2023/03/11 10:49:14;;;;;;;9.52;1.38;;;5.80;99.90;;;;;;5019208;28;20076;-78
2023/03/11 10:51:40;;;;;;;3.60;1.27;;;5.80;99.90;;;;;;4992392;28;20486;-76
2023/03/11 10:54:06;;;;;;;4.13;1.15;;;5.80;99.90;;;;;;4992792;28;20042;-76
2023/03/11 10:56:40;;;;;;;5.70;1.35;;;5.90;99.90;;;;;;4992580;28;20058;-77
2023/03/11 10:59:28;;;;;;;11.27;1.20;;;6.10;99.90;;;;;;4992585;28;20042;-76
2023/03/11 11:01:59;;;;;;;10.05;1.30;;;6.20;99.90;;;;;;4992778;28;20042;-78
2023/03/11 11:04:43;;;;;;;6.65;1.15;;;6.10;99.90;;;;;;4975068;28;20050;-79
2023/03/11 11:07:39;;;;;;;6.43;1.20;;;6.20;99.90;;;;;;4958544;28;20124;-78
2023/03/11 11:10:19;;;;;;;10.40;1.45;;;6.30;99.90;;;;;;4947189;28;20062;-79
2023/03/11 11:13:12;;;;;;;3.38;1.10;;;6.30;99.90;;;;;;4931795;29;20105;-78
2023/03/11 11:15:50;;;;;;;5.35;1.00;;;6.40;99.90;;;;;;4931623;29;20083;-79
2023/03/11 11:18:16;;;;;;;4.55;1.40;;;6.50;99.90;;;;;;4931581;29;20099;-79
2023/03/11 11:20:53;;;;;;;8.05;1.95;;;6.60;99.90;;;;;;4932162;29;20056;-80
2023/03/11 11:23:40;;;;;;;6.63;1.75;;;7.60;99.90;;;;;;4916380;29;20043;-80
2023/03/11 11:26:15;;;;;;;6.68;1.50;;;7.00;99.90;;;;;;4931880;29;20044;-80
2023/03/11 11:28:40;;;;;;;6.70;2.53;;;7.40;99.90;;;;;;4931772;29;20131;-80
2023/03/11 11:31:20;;;;;;;6.35;1.17;;;6.80;99.90;;;;;;4934086;29;20133;-77
2023/03/11 11:33:52;;;;;;;6.15;1.85;;;6.80;99.90;;;;;;4950743;28;20055;-81
2023/03/11 11:36:23;;;;;;;4.45;1.67;;;6.80;99.90;;;;;;4950672;29;20066;-80
2023/03/11 11:38:52;;;;;;;8.95;1.20;;;7.90;99.90;;;;;;4950469;29;20043;-80
2023/03/11 11:41:22;;;;;;;6.20;1.33;;;7.10;99.90;;;;;;4950633;29;20047;-81
2023/03/11 11:43:53;;;;;;;9.15;1.10;;;6.90;99.90;;;;;;4950034;29;20047;-81
2023/03/11 11:46:39;;;;;;;3.88;0.85;;;6.80;99.90;;;;;;4959635;28;20142;-81
2023/03/11 11:49:15;;;;;;;7.07;1.10;;;6.70;99.90;;;;;;4972328;28;20043;-81
2023/03/11 11:51:47;;;;;;;3.05;0.88;;;6.50;99.90;;;;;;4972249;28;20046;-82
2023/03/11 11:54:20;;;;;;;6.28;1.20;;;6.40;99.90;;;;;;4970814;28;20133;-82
2023/03/11 11:56:45;;;;;;;3.80;1.00;;;7.20;99.90;;;;;;4971820;28;20446;-80
2023/03/11 11:59:17;;;;;;;4.60;1.00;;;6.30;99.90;;;;;;4971164;28;20054;-79
2023/03/11 12:01:56;;;;;;;2.70;0.93;;;7.40;99.90;;;;;;4985683;28;20042;-80
2023/03/11 12:04:29;;;;;;;2.85;0.90;;;6.30;99.90;;;;;;4972015;28;20510;-80
2023/03/11 12:07:10;;;;;;;3.38;0.88;;;6.30;99.90;;;;;;4972159;28;20047;-79
2023/03/11 12:09:42;;;;;;;6.10;1.65;;;6.20;99.90;;;;;;4969903;28;20165;-79
2023/03/11 12:12:19;;;;;;;3.83;1.20;;;6.20;99.90;;;;;;4981196;28;20054;-80
2023/03/11 12:14:59;;;;;;;6.35;1.00;;;6.10;99.90;;;;;;4990855;28;20042;-80
2023/03/11 12:17:29;;;;;;;4.95;0.80;;;6.20;99.90;;;;;;4991334;28;20050;-80
2023/03/11 12:20:21;;;;;;;4.70;0.95;;;6.30;99.90;;;;;;4973017;28;20096;-79
2023/03/11 12:23:16;;;;;;;5.40;0.98;;;6.30;99.90;;;;;;4990700;28;20497;-82
2023/03/11 12:25:57;;;;;;;5.32;0.85;;;6.20;99.90;;;;;;4978455;28;20117;-80
2023/03/11 12:28:46;;;;;;;7.28;1.13;;;6.20;99.90;;;;;;4971270;28;20106;-81
2023/03/11 12:31:12;;;;;;;4.03;0.85;;;5.90;99.90;;;;;;4990993;28;20073;-80
2023/03/11 12:33:49;;;;;;;7.40;1.00;;;6.10;99.90;;;;;;4990827;28;20042;-79
2023/03/11 12:36:24;;;;;;;5.88;1.05;;;6.00;99.90;;;;;;4990831;28;20129;-79
2023/03/11 12:38:51;;;;;;;2.92;0.80;;;6.00;99.90;;;;;;4990874;28;20034;-78
2023/03/11 12:41:30;;;;;;;7.00;0.95;;;5.90;99.90;;;;;;4990690;28;20046;-78
2023/03/11 12:43:59;;;;;;;5.78;0.77;;;5.90;99.90;;;;;;4990725;28;20042;-78
2023/03/11 12:46:57;;;;;;;12.07;1.17;;;5.80;99.90;;;;;;4990372;28;20113;-79
2023/03/11 12:49:31;;;;;;;9.23;0.95;;;5.80;99.90;;;;;;4992979;28;20046;-78
2023/03/11 12:52:09;;;;;;;1.95;0.65;;;5.90;99.90;;;;;;5001062;28;20101;-77
2023/03/11 12:54:40;;;;;;;6.13;0.60;;;5.80;99.90;;;;;;4953909;28;20053;-77
2023/03/11 12:57:15;;;;;;;5.80;1.10;;;5.90;99.90;;;;;;4971121;28;20054;-78
2023/03/11 12:59:44;;;;;;;3.78;0.93;;;6.00;99.90;;;;;;4971254;28;20387;-78
2023/03/11 13:02:15;;;;;;;2.55;0.40;;;6.10;99.90;;;;;;4987883;28;20042;-79